Private Wetterstation Nrnberg - Katzwang
Wetterdaten: Mrz 2015
Datum Temp. A. Feuchte A. Luftdruck Regen Wind Richtung Taupunkt Windchill Windben
01.03.2015 4,7 C 85 % 1006 hPa 4,1 l/m 6,0 km/h N-NO 2,4 C 2,5 C 4,9 km/h
02.03.2015 4,6 C 77 % 1007 hPa 6,2 l/m 30,3 km/h W-NW 0,8 C -5,1 C 34,2 km/h
03.03.2015 4,5 C 70 % 1017 hPa 0,5 l/m 2,2 km/h W-NW -0,7 C 3,9 C 1,8 km/h
04.03.2015 2,9 C 72 % 1023 hPa 0,0 l/m 3,8 km/h W-NW -1,9 C 2,3 C 3,2 km/h
05.03.2015 3,7 C 68 % 1031 hPa 0,0 l/m 1,3 km/h W-NW -1,9 C 3,7 C 1,0 km/h
06.03.2015 3,5 C 75 % 1033 hPa 0,0 l/m 3,2 km/h N-NW -0,5 C 2,4 C 2,6 km/h
07.03.2015 3,5 C 71 % 1029 hPa 0,0 l/m 9,8 km/h NO -1,7 C 0,9 C 8,1 km/h
08.03.2015 5,3 C 66 % 1022 hPa 0,0 l/m 0,0 km/h O-NO -1,0 C 5,3 C 0,0 km/h
09.03.2015 5,8 C 66 % 1022 hPa 0,0 l/m 0,0 km/h NO -0,8 C 5,8 C 0,0 km/h
10.03.2015 7,7 C 73 % 1023 hPa 1,0 l/m 5,1 km/h N 2,7 C 6,4 C 4,2 km/h
11.03.2015 3,9 C 69 % 1025 hPa 0,5 l/m 2,5 km/h N -1,7 C 3,2 C 2,1 km/h
12.03.2015 3,9 C 71 % 1025 hPa 0,0 l/m 6,9 km/h N-NO -1,2 C 1,0 C 5,8 km/h
13.03.2015 3,3 C 73 % 1020 hPa 0,0 l/m 5,3 km/h O -1,2 C 2,4 C 4,4 km/h
14.03.2015 3,9 C 80 % 1021 hPa 0,0 l/m 1,3 km/h N-NO 0,7 C 3,9 C 1,0 km/h
15.03.2015 3,8 C 77 % 1020 hPa 0,0 l/m 4,4 km/h NO 0,0 C 2,2 C 3,7 km/h
16.03.2015 6,5 C 66 % 1020 hPa 0,0 l/m 3,5 km/h O -0,0 C 5,6 C 2,9 km/h
17.03.2015 9,5 C 65 % 1021 hPa 0,0 l/m 7,6 km/h O 2,8 C 8,0 C 8,6 km/h
18.03.2015 7,5 C 66 % 1021 hPa 0,0 l/m 0,0 km/h NO 1,2 C 7,5 C 0,0 km/h
19.03.2015 6,3 C 63 % 1021 hPa 0,0 l/m 2,2 km/h NO -0,9 C 6,0 C 1,8 km/h
20.03.2015 5,0 C 65 % 1018 hPa 0,0 l/m 1,9 km/h N-NO -1,6 C 4,8 C 1,6 km/h
21.03.2015 5,8 C 70 % 1013 hPa 0,0 l/m 10,1 km/h W-NW 0,4 C 1,7 C 8,4 km/h
22.03.2015 5,4 C 72 % 1018 hPa 0,0 l/m 7,3 km/h O 0,5 C 2,9 C 6,0 km/h
23.03.2015 4,8 C 76 % 1012 hPa 0,0 l/m 6,6 km/h NO 0,9 C 2,7 C 5,5 km/h
24.03.2015 6,8 C 72 % 1006 hPa 0,0 l/m 0,0 km/h N-NO 1,7 C 6,8 C 0,0 km/h
25.03.2015 11,0 C 61 % 1000 hPa 0,0 l/m 5,7 km/h O 3,0 C 9,8 C 4,7 km/h
26.03.2015 7,1 C 78 % 1006 hPa 0,0 l/m 0,0 km/h W-NW 3,5 C 7,1 C 0,0 km/h
27.03.2015 6,8 C 74 % 1016 hPa 0,0 l/m 0,0 km/h W-NW 2,4 C 6,8 C 0,0 km/h
28.03.2015 9,4 C 62 % 1016 hPa 0,0 l/m 0,0 km/h W-NW 2,1 C 9,4 C 0,0 km/h
29.03.2015 10,2 C 80 % 1002 hPa 3,1 l/m 15,1 km/h W-NW 6,8 C 5,4 C 14,6 km/h
30.03.2015 6,2 C 72 % 1004 hPa 4,7 l/m 14,8 km/h W-NW 1,4 C 1,5 C 28,2 km/h
31.03.2015 7,6 C 80 % 1001 hPa 5,7 l/m 19,8 km/h W-NW 4,3 C 1,3 C 25,1 km/h
Min-Datum 07.03.15 25.03.15 30.03.15 8 Tage 01.03.15 - 08.03.15 03.03.15 01.03.15
Min-Zeit 06:40 13:10 00:30 - 00:00 - 06:40 00:30 00:00
Minimum -2,8 C 36 % 995 hPa - 0,0 km/h - -5,3 C -14,5 C 0,0 km/h
Max-Datum 25.03.15 01.03.15 06.03.15 02.03.15 31.03.15 - 31.03.15 25.03.15 31.03.15
Max-Zeit 13:30 22:40 06:30 03:10 22:50 - 11:30 15:20 08:20
Maximum 19,6 C 87 % 1034 hPa 6,2 l/m 86,9 km/h
W-NW
- 8,8 C 18,4 C 157,6 km/h
W-NW
Durchschnitt 5,8 C 71 % 1017 hPa #25,9 l/m 5,7 km/h W-NW 0,7 C 4,1 C 5,9 km/h

Durchschnitt Minimum Temp.0,5 C
Durchschnitt Maximum Temp.12,1 C